Time;durP1;ratioP1;P1;durP2;ratioP2;P2;SDS_P1;SDS_P2;PMS_P1;PMS_P2;Temp;Humidity;BMP_temperature;BMP_pressure;BME280_temperature;BME280_humidity;BME280_pressure;Samples;Min_cycle;Max_cycle;Signal;HPM_P1;HPM_P2
2021/12/17 00:04:53;;;;;;;0.10;0.10;;;6.00;99.90;226.50;231333.00;;;;4990326;28;20267;-74
2021/12/17 00:07:25;;;;;;;0.08;0.08;;;6.00;99.90;226.50;231333.00;;;;4991596;28;20208;-73
2021/12/17 00:09:57;;;;;;;0.10;0.10;;;6.10;99.90;226.50;231333.00;;;;4989332;28;20255;-75
2021/12/17 00:12:29;;;;;;;0.10;0.10;;;6.10;99.90;226.50;231333.00;;;;4993831;28;20208;-74
2021/12/17 00:14:58;;;;;;;0.10;0.10;;;6.00;99.90;226.50;231333.00;;;;4991372;28;20224;-73
2021/12/17 00:17:33;;;;;;;0.10;0.10;;;5.90;99.90;226.50;231333.00;;;;4992202;28;20196;-74
2021/12/17 00:20:30;;;;;;;0.10;0.10;;;6.00;99.90;226.50;231333.00;;;;4986388;28;20750;-74
2021/12/17 00:40:25;;;;;;;0.10;0.10;;;5.60;99.90;226.50;231333.00;;;;4986839;28;20207;-74
2021/12/17 00:48:36;;;;;;;0.00;0.00;;;5.50;99.90;226.50;231333.00;;;;4992351;28;20188;-74
2021/12/17 00:53:56;;;;;;;0.10;0.10;;;5.30;99.90;226.50;231333.00;;;;4975773;28;20251;-74
2021/12/17 00:56:25;;;;;;;0.10;0.10;;;5.30;99.90;226.50;231333.00;;;;4992405;28;20200;-77
2021/12/17 00:58:55;;;;;;;0.00;0.00;;;5.40;99.90;226.50;231333.00;;;;4984588;28;20597;-74
2021/12/17 01:01:24;;;;;;;0.10;0.10;;;5.40;99.90;226.50;231333.00;;;;4991907;28;20239;-74
2021/12/17 01:03:56;;;;;;;0.10;0.10;;;5.40;99.90;226.50;231333.00;;;;5006139;28;20266;-74
2021/12/17 01:06:24;;;;;;;0.10;0.10;;;5.30;99.90;226.50;231333.00;;;;4991368;28;20196;-73
2021/12/17 01:08:53;;;;;;;0.10;0.10;;;5.40;99.90;226.50;231333.00;;;;4992798;28;20223;-74
2021/12/17 01:11:25;;;;;;;0.10;0.10;;;5.40;99.90;226.50;231333.00;;;;4991618;28;20239;-74
2021/12/17 01:14:13;;;;;;;0.10;0.10;;;5.20;99.90;226.50;231333.00;;;;5000778;28;20252;-74
2021/12/17 01:17:02;;;;;;;0.10;0.10;;;5.10;99.90;226.50;231333.00;;;;4992416;28;20236;-75
2021/12/17 01:20:12;;;;;;;0.10;0.10;;;5.10;99.90;226.50;231333.00;;;;4986924;28;20207;-76
2021/12/17 01:22:51;;;;;;;0.10;0.10;;;5.10;99.90;226.50;231333.00;;;;4989658;28;20224;-74
2021/12/17 01:25:43;;;;;;;0.10;0.10;;;5.00;99.90;226.50;231333.00;;;;4987104;28;20692;-76
2021/12/17 01:39:01;;;;;;;0.10;0.10;;;4.70;99.90;226.50;231333.00;;;;4978684;28;20574;-73
2021/12/17 01:41:45;;;;;;;0.10;0.10;;;4.70;99.90;226.50;231333.00;;;;4999107;28;20220;-73
2021/12/17 01:44:15;;;;;;;0.10;0.10;;;4.70;99.90;226.50;231333.00;;;;4990257;28;20776;-74
2021/12/17 01:46:50;;;;;;;0.10;0.10;;;4.70;99.90;226.50;231333.00;;;;4999859;28;20235;-75
2021/12/17 01:55:40;;;;;;;0.10;0.10;;;4.70;99.90;226.50;231333.00;;;;4979676;28;20674;-75
2021/12/17 02:00:49;;;;;;;0.10;0.10;;;4.60;99.90;226.50;231333.00;;;;4992227;28;20204;-74
2021/12/17 02:03:19;;;;;;;0.10;0.10;;;4.50;99.90;226.50;231333.00;;;;4996385;28;20735;-74
2021/12/17 02:05:47;;;;;;;0.10;0.10;;;4.60;99.90;226.50;231333.00;;;;4988641;28;20314;-74
2021/12/17 02:08:16;;;;;;;0.10;0.10;;;4.70;99.90;226.50;231333.00;;;;4997539;28;20209;-74
2021/12/17 02:11:28;;;;;;;0.10;0.10;;;4.50;99.90;226.50;231333.00;;;;4998042;28;20192;-74
2021/12/17 02:19:45;;;;;;;0.10;0.10;;;4.20;99.90;226.50;231333.00;;;;5002763;28;20296;-74
2021/12/17 02:23:05;;;;;;;0.10;0.10;;;4.10;99.90;226.50;231333.00;;;;4994107;28;20311;-75
2021/12/17 02:31:15;;;;;;;0.10;0.10;;;3.70;99.90;226.50;231333.00;;;;4996736;28;20196;-75
2021/12/17 02:33:43;;;;;;;0.10;0.10;;;3.50;99.90;226.50;231333.00;;;;4987816;28;20227;-75
2021/12/17 02:36:15;;;;;;;0.10;0.10;;;3.30;99.90;226.50;231333.00;;;;5000447;28;20206;-73
2021/12/17 02:38:45;;;;;;;0.10;0.10;;;3.20;99.90;226.50;231333.00;;;;4989870;28;20224;-74
2021/12/17 02:47:14;;;;;;;0.10;0.10;;;3.40;99.90;226.50;231333.00;;;;4985266;28;20666;-74
2021/12/17 02:49:46;;;;;;;0.10;0.10;;;3.50;99.90;226.50;231333.00;;;;4996467;28;20196;-74
2021/12/17 02:52:16;;;;;;;0.10;0.10;;;3.60;99.90;226.50;231333.00;;;;4989298;28;20204;-73
2021/12/17 02:54:47;;;;;;;0.10;0.10;;;3.70;99.90;226.50;231333.00;;;;4992264;28;20247;-74
2021/12/17 02:57:15;;;;;;;0.10;0.10;;;3.80;99.90;226.50;231333.00;;;;4980102;28;20200;-74
2021/12/17 02:59:43;;;;;;;0.10;0.10;;;3.80;99.90;226.50;231333.00;;;;5006825;28;20193;-73
2021/12/17 03:02:11;;;;;;;0.10;0.10;;;3.80;99.90;226.50;231333.00;;;;4996278;28;20247;-74
2021/12/17 03:04:42;;;;;;;0.10;0.10;;;3.90;99.90;226.50;231333.00;;;;4990707;28;20236;-74
2021/12/17 03:07:13;;;;;;;0.10;0.10;;;4.00;99.90;226.50;231333.00;;;;4994320;28;20270;-75
2021/12/17 03:10:01;;;;;;;0.10;0.10;;;4.10;99.90;226.50;231333.00;;;;4983233;28;20200;-74
2021/12/17 03:12:36;;;;;;;0.10;0.10;;;4.10;99.90;226.50;231333.00;;;;4995855;28;20212;-74
2021/12/17 03:15:14;;;;;;;0.10;0.10;;;4.10;99.90;226.50;231333.00;;;;4982270;28;20538;-74
2021/12/17 03:18:29;;;;;;;0.10;0.10;;;4.00;99.90;226.50;231333.00;;;;4993163;28;20212;-75
2021/12/17 03:23:31;;;;;;;0.10;0.10;;;3.90;99.90;226.50;231333.00;;;;4998437;28;20232;-74
2021/12/17 03:26:05;;;;;;;0.10;0.10;;;3.80;99.90;226.50;231333.00;;;;4989591;28;20247;-75
2021/12/17 03:28:36;;;;;;;0.10;0.10;;;3.80;99.90;226.50;231333.00;;;;4982723;28;20681;-74
2021/12/17 03:31:05;;;;;;;0.10;0.10;;;3.70;99.90;226.50;231333.00;;;;5001554;28;20200;-74
2021/12/17 03:33:41;;;;;;;0.10;0.10;;;3.60;99.90;226.50;231333.00;;;;4989347;28;20239;-74
2021/12/17 03:36:11;;;;;;;0.00;0.00;;;3.60;99.90;226.50;231333.00;;;;4981462;28;20212;-74
2021/12/17 03:38:40;;;;;;;0.10;0.10;;;3.70;99.90;226.50;231333.00;;;;4989797;28;20207;-76
2021/12/17 03:41:17;;;;;;;0.10;0.10;;;3.60;99.90;226.50;231333.00;;;;4986513;28;20193;-75
2021/12/17 03:43:55;;;;;;;0.10;0.10;;;3.70;99.90;226.50;231333.00;;;;4993194;28;20224;-76
2021/12/17 03:46:34;;;;;;;0.10;0.10;;;3.80;99.90;226.50;231333.00;;;;4994057;28;20201;-76
2021/12/17 03:49:03;;;;;;;0.10;0.10;;;3.80;99.90;226.50;231333.00;;;;4989460;28;20199;-76
2021/12/17 03:51:36;;;;;;;0.10;0.10;;;3.80;99.90;226.50;231333.00;;;;5000278;28;20235;-75
2021/12/17 03:54:04;;;;;;;0.10;0.10;;;3.80;99.90;226.50;231333.00;;;;4992683;28;20239;-75
2021/12/17 03:56:34;;;;;;;0.10;0.10;;;3.80;99.90;226.50;231333.00;;;;4995301;28;20201;-75
2021/12/17 03:59:10;;;;;;;0.10;0.10;;;3.80;99.90;226.50;231333.00;;;;4990843;28;20196;-75
2021/12/17 04:01:40;;;;;;;0.10;0.10;;;3.80;99.90;226.50;231333.00;;;;5000338;28;20247;-74
2021/12/17 04:04:09;;;;;;;0.10;0.10;;;3.80;99.90;226.50;231333.00;;;;4988094;28;20232;-74
2021/12/17 04:06:39;;;;;;;0.10;0.10;;;3.80;99.90;226.50;231333.00;;;;4997818;28;20201;-74
2021/12/17 04:09:33;;;;;;;0.10;0.10;;;3.80;99.90;226.50;231333.00;;;;4992226;28;20214;-75
2021/12/17 04:12:14;;;;;;;0.10;0.10;;;3.70;99.90;226.50;231333.00;;;;5008558;28;20283;-74
2021/12/17 04:15:04;;;;;;;0.10;0.10;;;3.70;99.90;226.50;231333.00;;;;4991485;28;20228;-74
2021/12/17 04:17:41;;;;;;;0.10;0.10;;;3.70;99.90;226.50;231333.00;;;;4990553;28;20211;-75
2021/12/17 04:20:11;;;;;;;0.10;0.10;;;3.80;99.90;226.50;231333.00;;;;4993142;28;20200;-73
2021/12/17 04:22:40;;;;;;;0.10;0.10;;;3.70;99.90;226.50;231333.00;;;;4991417;28;20213;-73
2021/12/17 04:25:08;;;;;;;0.10;0.10;;;3.70;99.90;226.50;231333.00;;;;4992891;28;20196;-74
2021/12/17 04:27:37;;;;;;;0.10;0.10;;;3.80;99.90;226.50;231333.00;;;;4985210;28;20702;-74
2021/12/17 04:30:08;;;;;;;0.10;0.10;;;3.90;99.90;226.50;231333.00;;;;4992084;28;20199;-73
2021/12/17 04:32:37;;;;;;;0.10;0.10;;;4.00;99.90;226.50;231333.00;;;;4987418;28;20678;-74
2021/12/17 04:35:06;;;;;;;0.10;0.10;;;4.10;99.90;226.50;231333.00;;;;4988293;28;20204;-74
2021/12/17 04:37:42;;;;;;;0.10;0.10;;;4.10;99.90;226.50;231333.00;;;;4983697;28;20196;-74
2021/12/17 04:40:12;;;;;;;0.10;0.10;;;4.20;99.90;226.50;231333.00;;;;5004720;28;20205;-74
2021/12/17 04:42:56;;;;;;;0.10;0.10;;;4.20;99.90;226.50;231333.00;;;;5004287;28;20694;-74
2021/12/17 04:45:28;;;;;;;0.10;0.10;;;4.10;99.90;226.50;231333.00;;;;4990741;28;20692;-74
2021/12/17 04:59:18;;;;;;;0.10;0.10;;;4.20;99.90;226.50;231333.00;;;;4988939;28;20200;-74
2021/12/17 05:01:49;;;;;;;0.10;0.10;;;4.20;99.90;226.50;231333.00;;;;4984569;28;20205;-74
2021/12/17 05:04:19;;;;;;;0.10;0.10;;;4.10;99.90;226.50;231333.00;;;;4985857;28;20229;-74
2021/12/17 05:06:48;;;;;;;0.10;0.10;;;4.10;99.90;226.50;231333.00;;;;4978016;28;20197;-74
2021/12/17 05:09:28;;;;;;;0.10;0.10;;;4.20;99.90;226.50;231333.00;;;;4988708;28;20255;-73
2021/12/17 05:20:31;;;;;;;0.10;0.10;;;4.00;99.90;226.50;231333.00;;;;4998822;28;20246;-72
2021/12/17 05:23:00;;;;;;;0.10;0.10;;;4.00;99.90;226.50;231333.00;;;;5006712;28;20303;-72
2021/12/17 05:25:29;;;;;;;0.10;0.10;;;4.10;99.90;226.50;231333.00;;;;5004251;28;20231;-75
2021/12/17 05:28:02;;;;;;;0.10;0.10;;;4.10;99.90;226.50;231333.00;;;;4987208;28;20215;-73
2021/12/17 05:30:37;;;;;;;0.10;0.10;;;4.00;99.90;226.50;231333.00;;;;4989677;28;20246;-74
2021/12/17 05:33:06;;;;;;;0.10;0.10;;;4.00;99.90;226.50;231333.00;;;;4988244;28;20228;-73
2021/12/17 05:35:34;;;;;;;0.10;0.10;;;4.10;99.90;226.50;231333.00;;;;5004483;28;20196;-73
2021/12/17 05:38:06;;;;;;;0.08;0.08;;;4.20;99.90;226.50;231333.00;;;;4987957;28;20201;-72
2021/12/17 05:40:34;;;;;;;0.10;0.10;;;4.20;99.90;226.50;231333.00;;;;4983957;28;20203;-72
2021/12/17 05:43:06;;;;;;;0.10;0.10;;;4.10;99.90;226.50;231333.00;;;;4987244;28;20215;-73
2021/12/17 05:45:49;;;;;;;0.10;0.10;;;4.10;99.90;226.50;231333.00;;;;5005447;28;20292;-72
2021/12/17 05:48:21;;;;;;;0.10;0.10;;;4.10;99.90;226.50;231333.00;;;;4992418;28;20341;-72
2021/12/17 05:50:57;;;;;;;0.10;0.10;;;4.10;99.90;226.50;231333.00;;;;4999530;28;20239;-73
2021/12/17 05:53:28;;;;;;;0.10;0.10;;;4.10;99.90;226.50;231333.00;;;;4988541;28;20243;-73
2021/12/17 05:55:58;;;;;;;0.10;0.10;;;4.10;99.90;226.50;231333.00;;;;4988908;28;20733;-72
2021/12/17 05:58:33;;;;;;;0.10;0.10;;;4.10;99.90;226.50;231333.00;;;;4984239;28;20620;-72
2021/12/17 06:01:01;;;;;;;0.10;0.10;;;4.20;99.90;226.50;231333.00;;;;4995705;28;20542;-73
2021/12/17 06:03:46;;;;;;;0.10;0.10;;;4.20;99.90;226.50;231333.00;;;;4979891;28;20229;-74
2021/12/17 06:06:27;;;;;;;0.10;0.10;;;4.30;99.90;226.50;231333.00;;;;4990444;28;20204;-74
2021/12/17 06:08:55;;;;;;;0.10;0.10;;;4.40;99.90;226.50;231333.00;;;;4971792;28;20197;-74
2021/12/17 06:11:25;;;;;;;0.10;0.10;;;4.40;99.90;226.50;231333.00;;;;4984517;28;20200;-73
2021/12/17 06:13:53;;;;;;;0.10;0.10;;;4.50;99.90;226.50;231333.00;;;;4979343;28;20227;-74
2021/12/17 06:16:27;;;;;;;0.10;0.10;;;4.50;99.90;226.50;231333.00;;;;4993534;28;20300;-74
2021/12/17 06:18:56;;;;;;;0.10;0.10;;;4.50;99.90;226.50;231333.00;;;;4986503;28;20201;-74
2021/12/17 06:21:26;;;;;;;0.10;0.10;;;4.50;99.90;226.50;231333.00;;;;4989575;28;20211;-73
2021/12/17 06:23:54;;;;;;;0.10;0.10;;;4.50;99.90;226.50;231333.00;;;;5000475;28;20228;-73
2021/12/17 06:26:22;;;;;;;0.10;0.10;;;4.50;99.90;226.50;231333.00;;;;4979052;28;20207;-73
2021/12/17 06:28:53;;;;;;;0.10;0.10;;;4.60;99.90;226.50;231333.00;;;;4994672;28;20761;-74
2021/12/17 06:31:23;;;;;;;0.10;0.10;;;4.60;99.90;226.50;231333.00;;;;4988844;28;20573;-73
2021/12/17 06:33:52;;;;;;;0.10;0.10;;;4.70;99.90;226.50;231333.00;;;;4984706;28;20643;-73
2021/12/17 06:36:22;;;;;;;0.10;0.10;;;4.70;99.90;226.50;231333.00;;;;4990119;28;20568;-74
2021/12/17 06:38:50;;;;;;;0.10;0.10;;;4.70;99.90;226.50;231333.00;;;;4986952;28;20213;-73
2021/12/17 06:41:22;;;;;;;0.10;0.10;;;4.70;99.90;226.50;231333.00;;;;4993824;28;20206;-73
2021/12/17 06:43:55;;;;;;;0.10;0.10;;;4.80;99.90;226.50;231333.00;;;;5005784;28;20239;-74
2021/12/17 06:46:31;;;;;;;0.10;0.10;;;5.00;99.90;226.50;231333.00;;;;4986675;28;20691;-74
2021/12/17 06:49:17;;;;;;;0.10;0.10;;;5.20;99.90;226.50;231333.00;;;;4987192;28;20287;-74
2021/12/17 06:58:34;;;;;;;0.10;0.10;;;5.30;99.90;226.50;231333.00;;;;4994890;28;20615;-74
2021/12/17 07:01:20;;;;;;;0.10;0.10;;;5.30;99.90;226.50;231333.00;;;;4992938;28;20246;-75
2021/12/17 07:22:04;;;;;;;0.10;0.10;;;5.40;99.90;226.50;231333.00;;;;4997215;28;20223;-75
2021/12/17 07:24:51;;;;;;;0.10;0.10;;;5.40;99.90;226.50;231333.00;;;;4995299;28;20228;-74
2021/12/17 07:33:15;;;;;;;0.10;0.10;;;5.40;99.90;226.50;231333.00;;;;4965607;28;20251;-74
2021/12/17 07:36:07;;;;;;;0.10;0.10;;;5.30;99.90;226.50;231333.00;;;;5004158;28;20204;-73
2021/12/17 07:38:38;;;;;;;0.10;0.10;;;5.40;99.90;226.50;231333.00;;;;4997016;28;20228;-73
2021/12/17 07:41:26;;;;;;;0.10;0.10;;;5.50;99.90;226.50;231333.00;;;;4991262;28;20704;-72
2021/12/17 07:44:03;;;;;;;0.10;0.10;;;5.50;99.90;226.50;231333.00;;;;4986991;28;20287;-73
2021/12/17 07:46:43;;;;;;;0.03;0.03;;;5.50;99.90;226.50;231333.00;;;;5010645;28;20701;-73
2021/12/17 07:49:11;;;;;;;0.10;0.10;;;5.60;99.90;226.50;231333.00;;;;5010487;28;20228;-72
2021/12/17 07:51:39;;;;;;;0.10;0.10;;;5.40;99.90;226.50;231333.00;;;;5007112;28;20200;-76
2021/12/17 07:54:16;;;;;;;0.10;0.10;;;5.50;99.90;226.50;231333.00;;;;4993461;28;20234;-74
2021/12/17 07:56:46;;;;;;;0.10;0.10;;;5.50;99.90;226.50;231333.00;;;;4994502;28;20288;-74
2021/12/17 07:59:21;;;;;;;0.10;0.10;;;5.50;99.90;226.50;231333.00;;;;4994145;28;20271;-73
2021/12/17 08:01:49;;;;;;;0.10;0.10;;;5.50;99.90;226.50;231333.00;;;;4993758;28;20204;-73
2021/12/17 08:04:19;;;;;;;0.03;0.03;;;5.40;99.90;226.50;231333.00;;;;4993915;28;20228;-74
2021/12/17 08:07:09;;;;;;;0.10;0.10;;;5.40;99.90;226.50;231333.00;;;;4982342;28;20205;-73
2021/12/17 08:09:39;;;;;;;0.10;0.10;;;5.40;99.90;226.50;231333.00;;;;4990798;28;20247;-74
2021/12/17 08:12:10;;;;;;;0.10;0.10;;;5.40;99.90;226.50;231333.00;;;;4990329;28;20199;-74
2021/12/17 08:14:46;;;;;;;0.10;0.10;;;5.40;99.90;226.50;231333.00;;;;5008282;28;20251;-74
2021/12/17 08:17:34;;;;;;;0.08;0.08;;;5.50;99.90;226.50;231333.00;;;;4989518;28;20647;-75
2021/12/17 08:23:53;;;;;;;0.10;0.10;;;5.50;99.90;226.50;231333.00;;;;4993768;28;20741;-74
2021/12/17 08:26:16;;;;;;;0.10;0.10;;;5.50;99.90;226.50;231333.00;;;;4975345;28;20689;-73
2021/12/17 08:29:22;;;;;;;0.10;0.10;;;5.50;99.90;226.50;231333.00;;;;4992418;28;20296;-74
2021/12/17 08:31:45;;;;;;;0.10;0.10;;;5.50;99.90;226.50;231333.00;;;;5001618;28;20231;-74
2021/12/17 08:34:21;;;;;;;0.10;0.10;;;5.60;99.90;226.50;231333.00;;;;4989950;28;20275;-74
2021/12/17 08:36:51;;;;;;;0.10;0.10;;;5.70;99.90;226.50;231333.00;;;;4992515;28;20201;-73
2021/12/17 08:39:19;;;;;;;0.10;0.10;;;5.80;99.90;226.50;231333.00;;;;4993952;28;20208;-74
2021/12/17 08:41:53;;;;;;;0.10;0.10;;;5.90;99.90;226.50;231333.00;;;;4992751;28;20207;-74
2021/12/17 08:44:28;;;;;;;0.10;0.10;;;5.90;99.90;226.50;231333.00;;;;4973916;28;20217;-74
2021/12/17 08:47:25;;;;;;;0.10;0.10;;;6.00;99.90;226.50;231333.00;;;;4974870;28;20228;-74
2021/12/17 08:49:56;;;;;;;0.05;0.05;;;6.00;99.90;226.50;231333.00;;;;4973770;28;20241;-75
2021/12/17 08:52:24;;;;;;;0.10;0.10;;;6.00;99.90;226.50;231333.00;;;;4973878;28;20194;-74
2021/12/17 08:54:53;;;;;;;0.10;0.10;;;6.00;99.90;226.50;231333.00;;;;4973323;28;20236;-74
2021/12/17 08:57:21;;;;;;;0.10;0.10;;;6.00;99.90;226.50;231333.00;;;;4973018;28;20205;-74
2021/12/17 08:59:50;;;;;;;0.10;0.10;;;6.10;99.90;226.50;231333.00;;;;4973837;28;20205;-74
2021/12/17 09:02:37;;;;;;;0.10;0.10;;;6.10;99.90;226.50;231333.00;;;;4973909;28;20209;-74
2021/12/17 09:05:28;;;;;;;0.10;0.10;;;6.10;99.90;226.50;231333.00;;;;4990362;28;20221;-74
2021/12/17 09:07:56;;;;;;;0.10;0.10;;;6.20;99.90;226.50;231333.00;;;;4989201;28;20909;-74
2021/12/17 09:10:48;;;;;;;0.10;0.10;;;6.10;99.90;226.50;231333.00;;;;4990761;28;20228;-73
2021/12/17 09:13:19;;;;;;;0.10;0.10;;;6.20;99.90;226.50;231333.00;;;;5001281;28;20231;-74
2021/12/17 09:15:49;;;;;;;0.10;0.10;;;6.20;99.90;226.50;231333.00;;;;4992698;28;20271;-74
2021/12/17 09:18:28;;;;;;;0.10;0.10;;;6.30;99.90;226.50;160896.00;;;;4977983;28;20224;-74
2021/12/17 09:21:05;;;;;;;0.10;0.10;;;6.30;99.90;226.50;231333.00;;;;4992769;28;20206;-74
2021/12/17 09:23:57;;;;;;;0.10;0.10;;;6.30;99.90;226.50;231333.00;;;;4992488;28;20315;-73
2021/12/17 09:26:29;;;;;;;0.10;0.10;;;6.30;99.90;226.50;231333.00;;;;4988946;28;20217;-74
2021/12/17 09:28:58;;;;;;;0.10;0.10;;;6.30;99.90;226.50;231333.00;;;;4989141;28;20194;-74
2021/12/17 09:31:27;;;;;;;0.10;0.10;;;6.30;99.90;226.50;231333.00;;;;4985253;28;20197;-74
2021/12/17 09:33:56;;;;;;;0.10;0.10;;;6.30;99.90;226.50;231333.00;;;;4977804;28;20224;-74
2021/12/17 09:36:24;;;;;;;0.10;0.10;;;6.20;99.90;226.50;231333.00;;;;4974328;28;20638;-75
2021/12/17 09:38:53;;;;;;;0.10;0.10;;;6.20;99.90;226.50;231333.00;;;;4974075;28;20201;-74
2021/12/17 09:41:23;;;;;;;0.10;0.10;;;6.30;99.90;226.50;231333.00;;;;4985023;28;20192;-73
2021/12/17 09:43:51;;;;;;;0.10;0.10;;;6.30;99.90;226.50;231333.00;;;;4992339;28;20286;-73
2021/12/17 09:46:20;;;;;;;0.10;0.10;;;6.20;99.90;226.50;231333.00;;;;4990240;28;20220;-74
2021/12/17 09:48:50;;;;;;;0.10;0.10;;;6.20;99.90;226.50;231333.00;;;;4973048;28;20205;-75
2021/12/17 09:51:20;;;;;;;0.10;0.10;;;6.20;99.90;226.50;231333.00;;;;4973144;28;20193;-73
2021/12/17 09:53:49;;;;;;;0.10;0.10;;;6.20;99.90;226.50;231333.00;;;;4986455;28;20224;-74
2021/12/17 09:56:18;;;;;;;0.10;0.10;;;6.20;99.90;226.50;231333.00;;;;4975995;28;20224;-74
2021/12/17 09:58:45;;;;;;;0.10;0.10;;;6.30;99.90;226.50;231333.00;;;;4987487;28;20197;-74
2021/12/17 10:01:13;;;;;;;0.10;0.10;;;6.30;99.90;226.50;231333.00;;;;4973194;28;20204;-74
2021/12/17 10:03:41;;;;;;;0.10;0.10;;;6.20;99.90;226.50;231333.00;;;;4983947;28;20728;-74
2021/12/17 10:06:23;;;;;;;0.10;0.10;;;6.30;99.90;226.50;231333.00;;;;4990798;28;20579;-74
2021/12/17 10:08:51;;;;;;;0.10;0.10;;;6.30;99.90;226.50;231333.00;;;;4983629;28;20537;-74
2021/12/17 10:11:20;;;;;;;0.10;0.10;;;6.30;99.90;226.50;231333.00;;;;4983617;28;20634;-75
2021/12/17 10:13:48;;;;;;;0.10;0.10;;;6.40;99.90;226.50;231333.00;;;;4988995;28;20307;-74
2021/12/17 10:16:22;;;;;;;0.10;0.10;;;6.40;99.90;226.50;231333.00;;;;4975730;28;20212;-76
2021/12/17 10:18:51;;;;;;;0.10;0.10;;;6.40;99.90;226.50;231333.00;;;;4977244;28;20188;-74
2021/12/17 10:21:25;;;;;;;0.10;0.10;;;6.40;99.90;226.50;231333.00;;;;4982588;28;20239;-74
2021/12/17 10:23:58;;;;;;;0.10;0.10;;;6.40;99.90;226.50;231333.00;;;;4975904;28;20251;-73
2021/12/17 10:26:28;;;;;;;0.00;0.00;;;6.10;99.90;226.50;231333.00;;;;4992687;28;20219;-74
2021/12/17 10:28:57;;;;;;;0.10;0.10;;;6.00;99.90;226.50;231333.00;;;;4981618;28;20638;-74
2021/12/17 10:31:28;;;;;;;0.10;0.10;;;6.10;99.90;226.50;231333.00;;;;4987687;28;20201;-74
2021/12/17 10:34:01;;;;;;;0.10;0.10;;;6.20;99.90;226.50;231333.00;;;;4976395;28;20224;-74
2021/12/17 10:36:34;;;;;;;0.10;0.10;;;6.00;99.90;226.50;231333.00;;;;4976134;28;20256;-73
2021/12/17 10:39:24;;;;;;;0.10;0.10;;;6.00;99.90;226.50;231333.00;;;;4976731;28;20798;-74
2021/12/17 10:41:53;;;;;;;0.10;0.10;;;6.00;99.90;226.50;231333.00;;;;4976375;28;20208;-74
2021/12/17 10:44:22;;;;;;;0.10;0.10;;;5.80;99.90;226.50;231333.00;;;;4976170;28;20225;-73
2021/12/17 10:47:07;;;;;;;0.10;0.10;;;5.80;99.90;226.50;231333.00;;;;4975750;28;20248;-74
2021/12/17 10:49:36;;;;;;;0.10;0.10;;;5.80;99.90;226.50;231333.00;;;;4985119;28;20560;-73
2021/12/17 10:52:15;;;;;;;0.10;0.10;;;5.80;99.90;226.50;231333.00;;;;4983635;28;20852;-74
2021/12/17 10:54:43;;;;;;;0.10;0.10;;;5.80;99.90;226.50;231333.00;;;;4992244;28;20227;-74
2021/12/17 10:57:11;;;;;;;0.10;0.10;;;5.80;99.90;226.50;231333.00;;;;4981468;28;20597;-74
2021/12/17 10:59:47;;;;;;;0.10;0.10;;;5.90;99.90;226.50;231333.00;;;;4986535;28;20205;-74
2021/12/17 11:02:15;;;;;;;0.10;0.10;;;5.90;99.90;226.50;231333.00;;;;4976440;28;20204;-75
2021/12/17 11:04:46;;;;;;;0.10;0.10;;;5.90;99.90;226.50;231333.00;;;;4992188;28;20315;-74
2021/12/17 11:07:18;;;;;;;0.10;0.10;;;6.10;99.90;226.50;231333.00;;;;4975875;28;20619;-75
2021/12/17 11:09:49;;;;;;;0.10;0.10;;;6.20;99.90;226.50;231333.00;;;;4985394;28;20200;-73
2021/12/17 11:12:28;;;;;;;0.10;0.10;;;6.20;99.90;226.50;231333.00;;;;4995426;28;20810;-74
2021/12/17 11:15:14;;;;;;;0.10;0.10;;;6.30;99.90;226.50;160922.00;;;;4976544;28;20228;-74
2021/12/17 11:17:44;;;;;;;0.10;0.10;;;6.40;99.90;226.50;231333.00;;;;4975558;28;20197;-75
2021/12/17 11:20:16;;;;;;;0.10;0.10;;;6.50;99.90;226.50;231333.00;;;;4975644;28;20210;-73
2021/12/17 11:22:50;;;;;;;0.10;0.10;;;6.50;99.90;226.50;231333.00;;;;4975557;28;20763;-73
2021/12/17 11:25:20;;;;;;;0.10;0.10;;;6.60;99.90;226.50;231333.00;;;;4975569;28;20217;-73
2021/12/17 11:27:49;;;;;;;0.10;0.10;;;6.60;99.90;226.50;231333.00;;;;4973997;28;20208;-73
2021/12/17 11:30:21;;;;;;;0.10;0.10;;;6.60;99.90;226.50;231333.00;;;;4988174;28;20728;-73
2021/12/17 11:32:52;;;;;;;0.10;0.10;;;6.60;99.90;226.50;231333.00;;;;4991459;28;20208;-74
2021/12/17 11:35:27;;;;;;;0.10;0.10;;;6.70;99.90;226.50;231333.00;;;;4974851;28;20659;-73
2021/12/17 11:38:02;;;;;;;0.10;0.10;;;6.70;99.90;226.50;231333.00;;;;4974609;28;20219;-74
2021/12/17 11:40:34;;;;;;;0.10;0.10;;;6.70;99.90;226.50;231333.00;;;;4988559;28;20259;-74
2021/12/17 11:43:38;;;;;;;0.10;0.10;;;6.60;99.90;226.50;231333.00;;;;4996933;28;20251;-73
2021/12/17 11:46:12;;;;;;;0.10;0.10;;;6.60;99.90;226.50;231333.00;;;;4981919;28;20278;-73
2021/12/17 11:48:48;;;;;;;0.10;0.10;;;6.60;99.90;226.50;231333.00;;;;4995571;28;20203;-72
2021/12/17 11:51:19;;;;;;;0.10;0.10;;;6.50;99.90;226.50;231333.00;;;;4995549;28;20196;-73
2021/12/17 11:54:04;;;;;;;0.10;0.10;;;6.50;99.90;226.50;231333.00;;;;4988977;28;20217;-75
2021/12/17 11:56:43;;;;;;;0.10;0.10;;;6.60;99.90;226.50;231333.00;;;;4976587;28;20197;-72
2021/12/17 11:59:35;;;;;;;0.10;0.10;;;6.60;99.90;226.50;231333.00;;;;4975453;28;20659;-73
2021/12/17 12:02:11;;;;;;;0.10;0.10;;;6.70;99.90;226.50;231333.00;;;;4975410;28;20263;-72
2021/12/17 12:05:03;;;;;;;0.10;0.10;;;6.70;99.90;226.50;231333.00;;;;4975582;28;20229;-72
2021/12/17 12:07:37;;;;;;;0.10;0.10;;;6.70;99.90;226.50;231333.00;;;;4971479;28;20225;-72
2021/12/17 12:10:22;;;;;;;0.05;0.05;;;6.70;99.90;226.50;231333.00;;;;4975265;28;20336;-71
2021/12/17 12:13:00;;;;;;;0.10;0.10;;;6.70;99.90;226.50;231333.00;;;;4974270;28;20689;-72
2021/12/17 12:15:40;;;;;;;0.10;0.10;;;6.60;99.90;226.50;231333.00;;;;4974868;28;20189;-71
2021/12/17 12:18:40;;;;;;;0.10;0.10;;;6.70;99.90;226.50;231333.00;;;;4975092;28;20618;-72
2021/12/17 12:21:11;;;;;;;0.10;0.10;;;6.50;99.90;226.50;231333.00;;;;4974962;28;20729;-71
2021/12/17 12:23:47;;;;;;;0.00;0.00;;;6.50;99.90;226.50;231333.00;;;;4974942;28;20213;-74
2021/12/17 12:26:34;;;;;;;0.10;0.10;;;6.50;99.90;226.50;231333.00;;;;4974590;28;20217;-71
2021/12/17 12:29:11;;;;;;;0.10;0.10;;;6.50;99.90;226.50;231333.00;;;;4977817;28;20260;-74
2021/12/17 12:31:49;;;;;;;0.10;0.10;;;6.50;99.90;226.50;231333.00;;;;4978395;28;20200;-71
2021/12/17 12:34:21;;;;;;;0.10;0.10;;;6.30;99.90;226.50;231333.00;;;;4985756;28;20224;-71
2021/12/17 12:37:28;;;;;;;0.10;0.10;;;6.30;99.90;226.50;231333.00;;;;4993276;28;20212;-71
2021/12/17 12:40:22;;;;;;;0.10;0.10;;;6.30;99.90;226.50;231333.00;;;;4988001;28;20193;-71
2021/12/17 12:42:55;;;;;;;0.10;0.10;;;6.40;99.90;226.50;231333.00;;;;4974277;28;20264;-71
2021/12/17 12:45:25;;;;;;;0.10;0.10;;;6.40;99.90;226.50;231333.00;;;;4974330;28;20608;-72
2021/12/17 12:47:58;;;;;;;0.10;0.10;;;6.60;99.90;226.50;231333.00;;;;4974242;28;20581;-72
2021/12/17 12:50:31;;;;;;;0.10;0.10;;;6.70;99.90;226.50;231333.00;;;;4974241;28;20201;-72
2021/12/17 12:53:11;;;;;;;0.10;0.10;;;6.70;99.90;226.50;231333.00;;;;4974276;28;20267;-72
2021/12/17 12:55:45;;;;;;;0.10;0.10;;;6.80;99.90;226.50;231333.00;;;;4973728;28;20204;-72
2021/12/17 12:58:23;;;;;;;0.10;0.10;;;6.80;99.90;226.50;231333.00;;;;4973081;28;20209;-72
2021/12/17 13:00:55;;;;;;;0.00;0.00;;;6.90;99.90;226.50;231333.00;;;;4981963;28;20216;-72
2021/12/17 13:03:28;;;;;;;0.10;0.10;;;7.00;99.90;226.50;231333.00;;;;4988007;28;20626;-72
2021/12/17 13:05:59;;;;;;;0.10;0.10;;;7.00;99.90;226.50;231333.00;;;;4984551;28;20607;-72
2021/12/17 13:08:30;;;;;;;0.10;0.10;;;7.00;99.90;226.50;231333.00;;;;4976090;28;20248;-72
2021/12/17 13:11:01;;;;;;;0.00;0.00;;;6.90;99.90;226.50;231333.00;;;;4984733;28;20878;-72
2021/12/17 13:13:44;;;;;;;0.10;0.10;;;7.00;99.90;226.50;231333.00;;;;4988662;28;20269;-72
2021/12/17 13:16:20;;;;;;;0.10;0.10;;;7.00;99.90;226.50;231333.00;;;;4990655;28;20211;-72
2021/12/17 13:21:48;;;;;;;0.10;0.10;;;7.10;99.90;226.50;231333.00;;;;4983326;28;20267;-72
2021/12/17 13:24:23;;;;;;;0.10;0.10;;;7.00;99.90;226.50;231333.00;;;;4973570;28;20229;-72
2021/12/17 13:26:54;;;;;;;0.10;0.10;;;6.90;99.90;226.50;231333.00;;;;4973284;28;20224;-72